Joshua, Illinois
Current Conditions -  °F | °C
As of 10:35 AM on Saturday 22 Nov 2014 (Local Time) from KGBG Reporting Station
Overcast Overcast  
Wind Chill: 51°   Ceiling: 1900
Heat Index: 51°   Visibility: 10mi
Dew Point: 44°   Wind: 18mph
Humidity: 78%   Direction: 190°S
Pressure: 29.95"   Gusts: 23mph
Location:  40.6688°N, 90.1616°W
Report Text: KGBG 221635Z AUTO 19016G20KT 10SM BKN019 BKN024 OVC041 10/07 A2995 RMK AO2 T01030066
Loading
Personal Weather Stations






























Interactive Weather Map New forecast layout! Learn more

10-Day Weather Forecast

Advertisements
Track Severe Weather on mobile